sensor_id;sensor_type;location;lat;lon;timestamp;temperature;humidity
22145;DHT22;11238;48.730;11.566;2022-07-05T00:00:11;20.80;99.90
22145;DHT22;11238;48.730;11.566;2022-07-05T00:02:39;20.80;99.90
22145;DHT22;11238;48.730;11.566;2022-07-05T00:05:05;20.80;99.90
22145;DHT22;11238;48.730;11.566;2022-07-05T00:07:32;20.80;99.90
22145;DHT22;11238;48.730;11.566;2022-07-05T00:09:58;20.80;99.90
22145;DHT22;11238;48.730;11.566;2022-07-05T00:12:30;20.70;99.90
22145;DHT22;11238;48.730;11.566;2022-07-05T00:14:58;20.70;99.90
22145;DHT22;11238;48.730;11.566;2022-07-05T00:17:25;20.60;99.90
22145;DHT22;11238;48.730;11.566;2022-07-05T00:19:51;20.70;99.90
22145;DHT22;11238;48.730;11.566;2022-07-05T00:22:17;20.80;99.90
22145;DHT22;11238;48.730;11.566;2022-07-05T00:24:43;20.70;99.90
22145;DHT22;11238;48.730;11.566;2022-07-05T00:27:09;20.80;99.90
22145;DHT22;11238;48.730;11.566;2022-07-05T00:29:35;20.60;99.90
22145;DHT22;11238;48.730;11.566;2022-07-05T00:32:01;20.50;99.90
22145;DHT22;11238;48.730;11.566;2022-07-05T00:34:26;20.60;99.90
22145;DHT22;11238;48.730;11.566;2022-07-05T00:36:52;20.60;99.90
22145;DHT22;11238;48.730;11.566;2022-07-05T00:39:20;20.60;99.90
22145;DHT22;11238;48.730;11.566;2022-07-05T00:41:47;20.40;99.90
22145;DHT22;11238;48.730;11.566;2022-07-05T00:44:13;20.50;99.90
22145;DHT22;11238;48.730;11.566;2022-07-05T00:46:43;20.50;99.90
22145;DHT22;11238;48.730;11.566;2022-07-05T00:49:09;20.50;99.90
22145;DHT22;11238;48.730;11.566;2022-07-05T00:51:37;20.50;99.90
22145;DHT22;11238;48.730;11.566;2022-07-05T00:54:06;20.50;99.90
22145;DHT22;11238;48.730;11.566;2022-07-05T00:56:32;20.50;99.90
22145;DHT22;11238;48.730;11.566;2022-07-05T00:58:58;20.40;99.90
22145;DHT22;11238;48.730;11.566;2022-07-05T01:01:26;20.50;99.90
22145;DHT22;11238;48.730;11.566;2022-07-05T01:03:52;20.40;99.90
22145;DHT22;11238;48.730;11.566;2022-07-05T01:06:19;20.20;99.90
22145;DHT22;11238;48.730;11.566;2022-07-05T01:08:46;20.20;99.90
22145;DHT22;11238;48.730;11.566;2022-07-05T01:11:13;20.30;99.90
22145;DHT22;11238;48.730;11.566;2022-07-05T01:13:39;20.30;99.90
22145;DHT22;11238;48.730;11.566;2022-07-05T01:16:05;20.20;99.90
22145;DHT22;11238;48.730;11.566;2022-07-05T01:18:32;20.20;99.90
22145;DHT22;11238;48.730;11.566;2022-07-05T01:20:59;20.10;99.90
22145;DHT22;11238;48.730;11.566;2022-07-05T01:23:27;20.10;99.90
22145;DHT22;11238;48.730;11.566;2022-07-05T01:25:54;20.10;99.90
22145;DHT22;11238;48.730;11.566;2022-07-05T01:28:20;20.10;99.90
22145;DHT22;11238;48.730;11.566;2022-07-05T01:30:46;20.10;99.90
22145;DHT22;11238;48.730;11.566;2022-07-05T01:33:13;20.10;99.90
22145;DHT22;11238;48.730;11.566;2022-07-05T01:35:39;20.00;99.90
22145;DHT22;11238;48.730;11.566;2022-07-05T01:38:05;19.90;99.90
22145;DHT22;11238;48.730;11.566;2022-07-05T01:40:31;19.90;99.90
22145;DHT22;11238;48.730;11.566;2022-07-05T01:42:58;19.80;99.90
22145;DHT22;11238;48.730;11.566;2022-07-05T01:45:24;19.80;99.90
22145;DHT22;11238;48.730;11.566;2022-07-05T01:48:07;19.70;99.90
22145;DHT22;11238;48.730;11.566;2022-07-05T01:50:40;19.60;99.90
22145;DHT22;11238;48.730;11.566;2022-07-05T01:53:11;19.60;99.90
22145;DHT22;11238;48.730;11.566;2022-07-05T01:55:40;19.50;99.90
22145;DHT22;11238;48.730;11.566;2022-07-05T01:58:06;19.50;99.90
22145;DHT22;11238;48.730;11.566;2022-07-05T02:00:48;19.60;99.90
22145;DHT22;11238;48.730;11.566;2022-07-05T02:03:15;19.60;99.90
22145;DHT22;11238;48.730;11.566;2022-07-05T02:05:42;19.60;99.90
22145;DHT22;11238;48.730;11.566;2022-07-05T02:08:11;19.60;99.90
22145;DHT22;11238;48.730;11.566;2022-07-05T02:10:38;19.50;99.90
22145;DHT22;11238;48.730;11.566;2022-07-05T02:13:05;19.50;99.90
22145;DHT22;11238;48.730;11.566;2022-07-05T02:15:34;19.50;99.90
22145;DHT22;11238;48.730;11.566;2022-07-05T02:18:01;19.40;99.90
22145;DHT22;11238;48.730;11.566;2022-07-05T02:20:29;19.20;99.90
22145;DHT22;11238;48.730;11.566;2022-07-05T02:22:56;19.20;99.90
22145;DHT22;11238;48.730;11.566;2022-07-05T02:25:23;19.20;99.90
22145;DHT22;11238;48.730;11.566;2022-07-05T02:27:50;19.10;99.90
22145;DHT22;11238;48.730;11.566;2022-07-05T02:30:17;19.10;99.90
22145;DHT22;11238;48.730;11.566;2022-07-05T02:32:43;19.10;99.90
22145;DHT22;11238;48.730;11.566;2022-07-05T02:35:10;19.10;99.90
22145;DHT22;11238;48.730;11.566;2022-07-05T02:37:37;19.10;99.90
22145;DHT22;11238;48.730;11.566;2022-07-05T02:40:08;19.10;99.90
22145;DHT22;11238;48.730;11.566;2022-07-05T02:42:39;19.10;99.90
22145;DHT22;11238;48.730;11.566;2022-07-05T02:45:07;19.10;99.90
22145;DHT22;11238;48.730;11.566;2022-07-05T02:47:34;19.00;99.90
22145;DHT22;11238;48.730;11.566;2022-07-05T02:50:06;18.90;99.90
22145;DHT22;11238;48.730;11.566;2022-07-05T02:52:33;18.90;99.90
22145;DHT22;11238;48.730;11.566;2022-07-05T02:55:00;18.90;99.90
22145;DHT22;11238;48.730;11.566;2022-07-05T02:57:26;18.90;99.90
22145;DHT22;11238;48.730;11.566;2022-07-05T02:59:53;18.80;99.90
22145;DHT22;11238;48.730;11.566;2022-07-05T03:02:21;18.70;99.90
22145;DHT22;11238;48.730;11.566;2022-07-05T03:04:47;18.60;99.90
22145;DHT22;11238;48.730;11.566;2022-07-05T03:07:13;18.50;99.90
22145;DHT22;11238;48.730;11.566;2022-07-05T03:09:39;18.40;99.90
22145;DHT22;11238;48.730;11.566;2022-07-05T03:12:06;18.30;99.90
22145;DHT22;11238;48.730;11.566;2022-07-05T03:14:34;18.30;99.90
22145;DHT22;11238;48.730;11.566;2022-07-05T03:17:00;18.30;99.90
22145;DHT22;11238;48.730;11.566;2022-07-05T03:19:26;18.20;99.90
22145;DHT22;11238;48.730;11.566;2022-07-05T03:21:52;18.20;99.90
22145;DHT22;11238;48.730;11.566;2022-07-05T03:24:18;18.30;99.90
22145;DHT22;11238;48.730;11.566;2022-07-05T03:26:44;18.30;99.90
22145;DHT22;11238;48.730;11.566;2022-07-05T03:29:10;18.40;99.90
22145;DHT22;11238;48.730;11.566;2022-07-05T03:31:37;18.40;99.90
22145;DHT22;11238;48.730;11.566;2022-07-05T03:34:05;18.40;99.90
22145;DHT22;11238;48.730;11.566;2022-07-05T03:36:31;18.40;99.90
22145;DHT22;11238;48.730;11.566;2022-07-05T03:38:59;18.50;99.90
22145;DHT22;11238;48.730;11.566;2022-07-05T03:41:25;18.50;99.90
22145;DHT22;11238;48.730;11.566;2022-07-05T03:43:52;18.40;99.90
22145;DHT22;11238;48.730;11.566;2022-07-05T03:46:18;18.30;99.90
22145;DHT22;11238;48.730;11.566;2022-07-05T03:48:44;18.20;99.90
22145;DHT22;11238;48.730;11.566;2022-07-05T03:51:13;18.10;99.90
22145;DHT22;11238;48.730;11.566;2022-07-05T03:53:39;18.00;99.90
22145;DHT22;11238;48.730;11.566;2022-07-05T03:56:05;18.10;99.90
22145;DHT22;11238;48.730;11.566;2022-07-05T03:58:31;18.00;99.90
22145;DHT22;11238;48.730;11.566;2022-07-05T04:00:58;18.10;99.90
22145;DHT22;11238;48.730;11.566;2022-07-05T04:03:26;18.10;99.90
22145;DHT22;11238;48.730;11.566;2022-07-05T04:05:52;18.00;99.90
22145;DHT22;11238;48.730;11.566;2022-07-05T04:08:18;18.00;99.90
22145;DHT22;11238;48.730;11.566;2022-07-05T04:10:45;17.90;99.90
22145;DHT22;11238;48.730;11.566;2022-07-05T04:13:14;18.10;99.90
22145;DHT22;11238;48.730;11.566;2022-07-05T04:15:41;18.10;99.90
22145;DHT22;11238;48.730;11.566;2022-07-05T04:18:07;18.10;99.90
22145;DHT22;11238;48.730;11.566;2022-07-05T04:20:37;18.20;99.90
22145;DHT22;11238;48.730;11.566;2022-07-05T04:23:04;18.20;99.90
22145;DHT22;11238;48.730;11.566;2022-07-05T04:25:30;18.20;99.90
22145;DHT22;11238;48.730;11.566;2022-07-05T04:28:09;18.10;99.90
22145;DHT22;11238;48.730;11.566;2022-07-05T04:30:36;18.00;99.90
22145;DHT22;11238;48.730;11.566;2022-07-05T04:33:04;18.00;99.90
22145;DHT22;11238;48.730;11.566;2022-07-05T04:35:31;18.10;99.90
22145;DHT22;11238;48.730;11.566;2022-07-05T04:37:58;18.20;99.90
22145;DHT22;11238;48.730;11.566;2022-07-05T04:40:25;18.20;99.90
22145;DHT22;11238;48.730;11.566;2022-07-05T04:42:51;18.20;99.90
22145;DHT22;11238;48.730;11.566;2022-07-05T04:45:18;18.30;99.90
22145;DHT22;11238;48.730;11.566;2022-07-05T04:47:44;18.30;99.90
22145;DHT22;11238;48.730;11.566;2022-07-05T04:50:10;18.30;99.90
22145;DHT22;11238;48.730;11.566;2022-07-05T04:52:36;18.30;99.90
22145;DHT22;11238;48.730;11.566;2022-07-05T04:55:03;18.40;99.90
22145;DHT22;11238;48.730;11.566;2022-07-05T04:57:37;18.30;99.90
22145;DHT22;11238;48.730;11.566;2022-07-05T05:00:04;18.30;99.90
22145;DHT22;11238;48.730;11.566;2022-07-05T05:02:30;18.20;99.90
22145;DHT22;11238;48.730;11.566;2022-07-05T05:04:55;18.30;99.90
22145;DHT22;11238;48.730;11.566;2022-07-05T05:07:21;18.30;99.90
22145;DHT22;11238;48.730;11.566;2022-07-05T05:09:47;18.30;99.90
22145;DHT22;11238;48.730;11.566;2022-07-05T05:12:13;18.40;99.90
22145;DHT22;11238;48.730;11.566;2022-07-05T05:14:39;18.50;99.90
22145;DHT22;11238;48.730;11.566;2022-07-05T05:17:05;18.60;99.90
22145;DHT22;11238;48.730;11.566;2022-07-05T05:19:31;18.60;99.90
22145;DHT22;11238;48.730;11.566;2022-07-05T05:21:56;18.70;99.90
22145;DHT22;11238;48.730;11.566;2022-07-05T05:24:22;18.70;99.90
22145;DHT22;11238;48.730;11.566;2022-07-05T05:26:48;18.90;99.90
22145;DHT22;11238;48.730;11.566;2022-07-05T05:29:18;19.10;99.90
22145;DHT22;11238;48.730;11.566;2022-07-05T05:31:44;19.10;99.90
22145;DHT22;11238;48.730;11.566;2022-07-05T05:34:10;19.30;99.90
22145;DHT22;11238;48.730;11.566;2022-07-05T05:36:36;19.50;99.90
22145;DHT22;11238;48.730;11.566;2022-07-05T05:39:02;19.70;99.90
22145;DHT22;11238;48.730;11.566;2022-07-05T05:41:28;19.70;99.90
22145;DHT22;11238;48.730;11.566;2022-07-05T05:43:54;19.60;99.90
22145;DHT22;11238;48.730;11.566;2022-07-05T05:46:19;19.70;99.90
22145;DHT22;11238;48.730;11.566;2022-07-05T05:48:46;19.50;99.90
22145;DHT22;11238;48.730;11.566;2022-07-05T05:51:11;19.30;99.90
22145;DHT22;11238;48.730;11.566;2022-07-05T05:53:37;19.50;99.90
22145;DHT22;11238;48.730;11.566;2022-07-05T05:56:03;19.60;99.90
22145;DHT22;11238;48.730;11.566;2022-07-05T05:58:29;19.50;99.90
22145;DHT22;11238;48.730;11.566;2022-07-05T06:00:55;19.30;99.90
22145;DHT22;11238;48.730;11.566;2022-07-05T06:03:25;19.50;99.90
22145;DHT22;11238;48.730;11.566;2022-07-05T06:05:52;19.60;99.90
22145;DHT22;11238;48.730;11.566;2022-07-05T06:08:18;19.70;99.90
22145;DHT22;11238;48.730;11.566;2022-07-05T06:10:45;19.70;99.50
22145;DHT22;11238;48.730;11.566;2022-07-05T06:13:12;19.50;98.10
22145;DHT22;11238;48.730;11.566;2022-07-05T06:15:39;19.70;99.90
22145;DHT22;11238;48.730;11.566;2022-07-05T06:18:07;19.70;99.40
22145;DHT22;11238;48.730;11.566;2022-07-05T06:20:35;19.90;99.90
22145;DHT22;11238;48.730;11.566;2022-07-05T06:23:03;20.00;99.90
22145;DHT22;11238;48.730;11.566;2022-07-05T06:25:30;20.00;99.90
22145;DHT22;11238;48.730;11.566;2022-07-05T06:28:04;20.00;97.40
22145;DHT22;11238;48.730;11.566;2022-07-05T06:30:35;20.10;99.50
22145;DHT22;11238;48.730;11.566;2022-07-05T06:33:01;20.10;98.50
22145;DHT22;11238;48.730;11.566;2022-07-05T06:35:27;20.10;99.00
22145;DHT22;11238;48.730;11.566;2022-07-05T06:37:59;20.30;99.30
22145;DHT22;11238;48.730;11.566;2022-07-05T06:42:54;20.40;98.00
22145;DHT22;11238;48.730;11.566;2022-07-05T06:45:24;20.30;97.70
22145;DHT22;11238;48.730;11.566;2022-07-05T06:48:10;20.30;95.30
22145;DHT22;11238;48.730;11.566;2022-07-05T06:50:41;20.30;95.80
22145;DHT22;11238;48.730;11.566;2022-07-05T06:53:09;20.40;97.70
22145;DHT22;11238;48.730;11.566;2022-07-05T06:55:35;20.50;97.10
22145;DHT22;11238;48.730;11.566;2022-07-05T06:58:03;20.70;97.50
22145;DHT22;11238;48.730;11.566;2022-07-05T07:00:33;20.70;97.00
22145;DHT22;11238;48.730;11.566;2022-07-05T07:02:59;20.80;95.00
22145;DHT22;11238;48.730;11.566;2022-07-05T07:05:25;20.90;97.00
22145;DHT22;11238;48.730;11.566;2022-07-05T07:07:51;20.90;96.00
22145;DHT22;11238;48.730;11.566;2022-07-05T07:11:00;21.10;95.60
22145;DHT22;11238;48.730;11.566;2022-07-05T07:13:28;21.10;94.80
22145;DHT22;11238;48.730;11.566;2022-07-05T07:15:54;21.20;96.10
22145;DHT22;11238;48.730;11.566;2022-07-05T07:18:22;21.20;95.00
22145;DHT22;11238;48.730;11.566;2022-07-05T07:20:48;21.30;94.70
22145;DHT22;11238;48.730;11.566;2022-07-05T07:23:14;21.40;95.20
22145;DHT22;11238;48.730;11.566;2022-07-05T07:25:42;21.40;94.90
22145;DHT22;11238;48.730;11.566;2022-07-05T07:28:08;21.50;93.50
22145;DHT22;11238;48.730;11.566;2022-07-05T07:30:34;21.50;92.60
22145;DHT22;11238;48.730;11.566;2022-07-05T07:33:00;21.60;93.80
22145;DHT22;11238;48.730;11.566;2022-07-05T07:35:25;21.70;93.80
22145;DHT22;11238;48.730;11.566;2022-07-05T07:37:51;21.80;93.80
22145;DHT22;11238;48.730;11.566;2022-07-05T07:40:17;21.80;93.10
22145;DHT22;11238;48.730;11.566;2022-07-05T07:42:43;21.90;94.50
22145;DHT22;11238;48.730;11.566;2022-07-05T07:45:09;22.10;94.20
22145;DHT22;11238;48.730;11.566;2022-07-05T07:47:36;22.20;94.00
22145;DHT22;11238;48.730;11.566;2022-07-05T07:50:03;22.30;93.70
22145;DHT22;11238;48.730;11.566;2022-07-05T07:52:30;22.40;91.60
22145;DHT22;11238;48.730;11.566;2022-07-05T07:54:56;22.50;92.80
22145;DHT22;11238;48.730;11.566;2022-07-05T07:57:22;22.50;92.30
22145;DHT22;11238;48.730;11.566;2022-07-05T07:59:48;22.60;92.20
22145;DHT22;11238;48.730;11.566;2022-07-05T08:02:17;22.70;91.50
22145;DHT22;11238;48.730;11.566;2022-07-05T08:04:47;22.80;90.00
22145;DHT22;11238;48.730;11.566;2022-07-05T08:07:13;22.80;90.60
22145;DHT22;11238;48.730;11.566;2022-07-05T08:09:40;22.90;89.20
22145;DHT22;11238;48.730;11.566;2022-07-05T08:12:06;22.90;86.90
22145;DHT22;11238;48.730;11.566;2022-07-05T08:14:52;23.00;89.00
22145;DHT22;11238;48.730;11.566;2022-07-05T08:17:18;23.20;88.10
22145;DHT22;11238;48.730;11.566;2022-07-05T08:19:46;23.20;85.10
22145;DHT22;11238;48.730;11.566;2022-07-05T08:22:32;23.30;88.70
22145;DHT22;11238;48.730;11.566;2022-07-05T08:24:57;23.50;84.30
22145;DHT22;11238;48.730;11.566;2022-07-05T08:27:24;23.50;84.30
22145;DHT22;11238;48.730;11.566;2022-07-05T08:29:50;23.50;82.00
22145;DHT22;11238;48.730;11.566;2022-07-05T08:32:16;23.60;82.20
22145;DHT22;11238;48.730;11.566;2022-07-05T08:34:43;23.70;81.30
22145;DHT22;11238;48.730;11.566;2022-07-05T08:37:23;23.80;80.90
22145;DHT22;11238;48.730;11.566;2022-07-05T08:47:51;24.20;80.60
22145;DHT22;11238;48.730;11.566;2022-07-05T08:50:19;24.40;79.40
22145;DHT22;11238;48.730;11.566;2022-07-05T08:52:47;24.50;81.40
22145;DHT22;11238;48.730;11.566;2022-07-05T08:55:13;24.50;76.10
22145;DHT22;11238;48.730;11.566;2022-07-05T08:57:40;24.70;74.10
22145;DHT22;11238;48.730;11.566;2022-07-05T09:00:06;24.60;71.20
22145;DHT22;11238;48.730;11.566;2022-07-05T09:02:32;24.70;78.40
22145;DHT22;11238;48.730;11.566;2022-07-05T09:04:58;24.70;77.00
22145;DHT22;11238;48.730;11.566;2022-07-05T09:07:26;24.70;77.20
22145;DHT22;11238;48.730;11.566;2022-07-05T09:09:56;24.70;75.70
22145;DHT22;11238;48.730;11.566;2022-07-05T09:12:23;24.60;74.20
22145;DHT22;11238;48.730;11.566;2022-07-05T09:14:49;24.50;73.50
22145;DHT22;11238;48.730;11.566;2022-07-05T09:17:15;24.60;75.80
22145;DHT22;11238;48.730;11.566;2022-07-05T09:19:42;24.80;73.80
22145;DHT22;11238;48.730;11.566;2022-07-05T09:22:08;24.90;68.90
22145;DHT22;11238;48.730;11.566;2022-07-05T09:24:43;25.10;70.90
22145;DHT22;11238;48.730;11.566;2022-07-05T09:27:09;25.30;67.70
22145;DHT22;11238;48.730;11.566;2022-07-05T09:29:35;25.50;65.30
22145;DHT22;11238;48.730;11.566;2022-07-05T09:32:01;25.50;61.80
22145;DHT22;11238;48.730;11.566;2022-07-05T09:34:28;25.60;62.20
22145;DHT22;11238;48.730;11.566;2022-07-05T09:36:59;25.80;66.70
22145;DHT22;11238;48.730;11.566;2022-07-05T09:42:09;25.80;62.70
22145;DHT22;11238;48.730;11.566;2022-07-05T09:44:42;25.80;58.50
22145;DHT22;11238;48.730;11.566;2022-07-05T09:47:13;25.80;58.40
22145;DHT22;11238;48.730;11.566;2022-07-05T09:49:48;25.60;58.00
22145;DHT22;11238;48.730;11.566;2022-07-05T09:52:34;25.70;58.60
22145;DHT22;11238;48.730;11.566;2022-07-05T09:55:18;25.70;57.80
22145;DHT22;11238;48.730;11.566;2022-07-05T09:57:46;25.80;59.60
22145;DHT22;11238;48.730;11.566;2022-07-05T10:00:18;25.80;62.60
22145;DHT22;11238;48.730;11.566;2022-07-05T10:02:52;25.80;58.50
22145;DHT22;11238;48.730;11.566;2022-07-05T10:05:20;25.90;56.20
22145;DHT22;11238;48.730;11.566;2022-07-05T10:07:51;26.00;56.90
22145;DHT22;11238;48.730;11.566;2022-07-05T10:10:19;26.10;57.30
22145;DHT22;11238;48.730;11.566;2022-07-05T10:12:51;26.30;54.90
22145;DHT22;11238;48.730;11.566;2022-07-05T10:15:20;26.30;54.50
22145;DHT22;11238;48.730;11.566;2022-07-05T10:17:53;26.40;55.10
22145;DHT22;11238;48.730;11.566;2022-07-05T10:23:09;26.70;53.10
22145;DHT22;11238;48.730;11.566;2022-07-05T10:25:36;26.70;55.60
22145;DHT22;11238;48.730;11.566;2022-07-05T10:28:03;26.80;53.00
22145;DHT22;11238;48.730;11.566;2022-07-05T10:30:30;26.90;51.90
22145;DHT22;11238;48.730;11.566;2022-07-05T10:32:57;27.00;50.30
22145;DHT22;11238;48.730;11.566;2022-07-05T10:35:23;27.00;50.60
22145;DHT22;11238;48.730;11.566;2022-07-05T10:38:11;27.20;54.10
22145;DHT22;11238;48.730;11.566;2022-07-05T10:40:40;27.10;50.40
22145;DHT22;11238;48.730;11.566;2022-07-05T10:43:08;27.00;50.80
22145;DHT22;11238;48.730;11.566;2022-07-05T10:45:39;26.90;50.90
22145;DHT22;11238;48.730;11.566;2022-07-05T10:50:48;27.10;50.70
22145;DHT22;11238;48.730;11.566;2022-07-05T10:53:15;27.20;49.80
22145;DHT22;11238;48.730;11.566;2022-07-05T11:06:07;27.80;49.80
22145;DHT22;11238;48.730;11.566;2022-07-05T11:13:54;28.10;47.00
22145;DHT22;11238;48.730;11.566;2022-07-05T11:16:21;28.10;48.90
22145;DHT22;11238;48.730;11.566;2022-07-05T11:18:52;28.10;48.20
22145;DHT22;11238;48.730;11.566;2022-07-05T11:21:21;28.00;49.10
22145;DHT22;11238;48.730;11.566;2022-07-05T11:23:48;27.60;46.00
22145;DHT22;11238;48.730;11.566;2022-07-05T11:26:17;27.60;47.50
22145;DHT22;11238;48.730;11.566;2022-07-05T11:28:47;27.80;50.10
22145;DHT22;11238;48.730;11.566;2022-07-05T11:31:42;27.90;48.30
22145;DHT22;11238;48.730;11.566;2022-07-05T11:34:14;28.20;48.70
22145;DHT22;11238;48.730;11.566;2022-07-05T11:36:40;28.40;47.50
22145;DHT22;11238;48.730;11.566;2022-07-05T11:39:07;28.40;47.80
22145;DHT22;11238;48.730;11.566;2022-07-05T11:41:37;28.10;47.50
22145;DHT22;11238;48.730;11.566;2022-07-05T11:44:05;28.00;47.70
22145;DHT22;11238;48.730;11.566;2022-07-05T11:46:32;27.80;47.80
22145;DHT22;11238;48.730;11.566;2022-07-05T11:49:00;27.90;52.70
22145;DHT22;11238;48.730;11.566;2022-07-05T11:51:25;28.10;49.40
22145;DHT22;11238;48.730;11.566;2022-07-05T11:53:51;28.30;47.80
22145;DHT22;11238;48.730;11.566;2022-07-05T11:56:17;28.10;45.10
22145;DHT22;11238;48.730;11.566;2022-07-05T11:58:43;28.10;46.10
22145;DHT22;11238;48.730;11.566;2022-07-05T12:01:09;27.90;45.90
22145;DHT22;11238;48.730;11.566;2022-07-05T12:03:35;27.80;46.90
22145;DHT22;11238;48.730;11.566;2022-07-05T12:06:13;27.90;47.50
22145;DHT22;11238;48.730;11.566;2022-07-05T12:08:41;27.80;45.40
22145;DHT22;11238;48.730;11.566;2022-07-05T12:11:10;27.70;46.70
22145;DHT22;11238;48.730;11.566;2022-07-05T12:13:56;27.70;47.30
22145;DHT22;11238;48.730;11.566;2022-07-05T12:16:22;27.90;49.50
22145;DHT22;11238;48.730;11.566;2022-07-05T12:18:55;27.90;46.80
22145;DHT22;11238;48.730;11.566;2022-07-05T12:21:23;27.70;46.90
22145;DHT22;11238;48.730;11.566;2022-07-05T12:23:50;27.40;47.30
22145;DHT22;11238;48.730;11.566;2022-07-05T12:26:17;27.30;47.10
22145;DHT22;11238;48.730;11.566;2022-07-05T12:28:43;27.20;48.10
22145;DHT22;11238;48.730;11.566;2022-07-05T12:31:20;27.50;51.10
22145;DHT22;11238;48.730;11.566;2022-07-05T12:33:47;27.50;46.10
22145;DHT22;11238;48.730;11.566;2022-07-05T12:36:15;27.50;45.90
22145;DHT22;11238;48.730;11.566;2022-07-05T12:38:41;27.50;46.20
22145;DHT22;11238;48.730;11.566;2022-07-05T12:41:07;27.30;44.80
22145;DHT22;11238;48.730;11.566;2022-07-05T12:43:51;27.30;46.20
22145;DHT22;11238;48.730;11.566;2022-07-05T12:46:18;27.40;46.90
22145;DHT22;11238;48.730;11.566;2022-07-05T12:48:44;27.30;45.70
22145;DHT22;11238;48.730;11.566;2022-07-05T12:51:11;27.20;45.90
22145;DHT22;11238;48.730;11.566;2022-07-05T12:53:48;27.20;45.50
22145;DHT22;11238;48.730;11.566;2022-07-05T12:56:32;27.10;46.10
22145;DHT22;11238;48.730;11.566;2022-07-05T12:59:17;27.40;48.10
22145;DHT22;11238;48.730;11.566;2022-07-05T13:01:43;27.60;45.60
22145;DHT22;11238;48.730;11.566;2022-07-05T13:04:12;27.70;44.70
22145;DHT22;11238;48.730;11.566;2022-07-05T13:06:40;27.60;45.40
22145;DHT22;11238;48.730;11.566;2022-07-05T13:09:06;27.70;47.60
22145;DHT22;11238;48.730;11.566;2022-07-05T13:11:32;27.80;48.00
22145;DHT22;11238;48.730;11.566;2022-07-05T13:13:58;27.90;46.90
22145;DHT22;11238;48.730;11.566;2022-07-05T13:16:24;27.70;45.60
22145;DHT22;11238;48.730;11.566;2022-07-05T13:18:49;27.70;46.80
22145;DHT22;11238;48.730;11.566;2022-07-05T13:21:15;27.60;46.40
22145;DHT22;11238;48.730;11.566;2022-07-05T13:23:41;27.70;46.60
22145;DHT22;11238;48.730;11.566;2022-07-05T13:26:07;27.80;46.40
22145;DHT22;11238;48.730;11.566;2022-07-05T13:28:32;28.00;45.50
22145;DHT22;11238;48.730;11.566;2022-07-05T13:30:58;28.20;46.90
22145;DHT22;11238;48.730;11.566;2022-07-05T13:33:24;28.40;45.80
22145;DHT22;11238;48.730;11.566;2022-07-05T13:35:50;28.60;45.80
22145;DHT22;11238;48.730;11.566;2022-07-05T13:38:15;28.70;44.10
22145;DHT22;11238;48.730;11.566;2022-07-05T13:40:41;28.90;44.30
22145;DHT22;11238;48.730;11.566;2022-07-05T13:43:07;29.10;43.90
22145;DHT22;11238;48.730;11.566;2022-07-05T13:45:33;29.10;42.80
22145;DHT22;11238;48.730;11.566;2022-07-05T13:47:59;29.10;43.30
22145;DHT22;11238;48.730;11.566;2022-07-05T13:50:24;29.40;43.60
22145;DHT22;11238;48.730;11.566;2022-07-05T13:53:01;29.50;44.30
22145;DHT22;11238;48.730;11.566;2022-07-05T13:55:27;29.50;41.90
22145;DHT22;11238;48.730;11.566;2022-07-05T13:57:53;29.50;44.00
22145;DHT22;11238;48.730;11.566;2022-07-05T14:00:20;29.50;42.80
22145;DHT22;11238;48.730;11.566;2022-07-05T14:02:46;29.30;42.40
22145;DHT22;11238;48.730;11.566;2022-07-05T14:05:12;29.30;44.50
22145;DHT22;11238;48.730;11.566;2022-07-05T14:07:38;29.50;43.40
22145;DHT22;11238;48.730;11.566;2022-07-05T14:10:04;29.50;42.30
22145;DHT22;11238;48.730;11.566;2022-07-05T14:12:30;29.60;44.90
22145;DHT22;11238;48.730;11.566;2022-07-05T14:14:56;29.80;44.00
22145;DHT22;11238;48.730;11.566;2022-07-05T14:17:22;29.90;42.40
22145;DHT22;11238;48.730;11.566;2022-07-05T14:19:48;29.90;42.60
22145;DHT22;11238;48.730;11.566;2022-07-05T14:22:14;30.00;43.40
22145;DHT22;11238;48.730;11.566;2022-07-05T14:24:40;30.30;42.90
22145;DHT22;11238;48.730;11.566;2022-07-05T14:27:05;30.30;42.90
22145;DHT22;11238;48.730;11.566;2022-07-05T14:29:33;30.00;41.80
22145;DHT22;11238;48.730;11.566;2022-07-05T14:31:59;30.00;42.00
22145;DHT22;11238;48.730;11.566;2022-07-05T14:34:24;30.00;42.10
22145;DHT22;11238;48.730;11.566;2022-07-05T14:36:50;30.10;42.40
22145;DHT22;11238;48.730;11.566;2022-07-05T14:39:16;30.10;43.10
22145;DHT22;11238;48.730;11.566;2022-07-05T14:41:42;30.20;42.10
22145;DHT22;11238;48.730;11.566;2022-07-05T14:44:09;30.20;42.20
22145;DHT22;11238;48.730;11.566;2022-07-05T14:46:34;30.30;43.00
22145;DHT22;11238;48.730;11.566;2022-07-05T14:49:00;30.30;41.90
22145;DHT22;11238;48.730;11.566;2022-07-05T14:51:26;30.30;41.80
22145;DHT22;11238;48.730;11.566;2022-07-05T14:53:52;30.40;42.10
22145;DHT22;11238;48.730;11.566;2022-07-05T14:56:18;30.40;39.80
22145;DHT22;11238;48.730;11.566;2022-07-05T14:58:43;30.50;41.30
22145;DHT22;11238;48.730;11.566;2022-07-05T15:01:10;30.50;40.70
22145;DHT22;11238;48.730;11.566;2022-07-05T15:03:35;30.50;40.20
22145;DHT22;11238;48.730;11.566;2022-07-05T15:06:01;30.40;41.50
22145;DHT22;11238;48.730;11.566;2022-07-05T15:08:31;30.40;42.20
22145;DHT22;11238;48.730;11.566;2022-07-05T15:10:56;30.40;41.80
22145;DHT22;11238;48.730;11.566;2022-07-05T15:13:22;30.20;41.70
22145;DHT22;11238;48.730;11.566;2022-07-05T15:15:51;30.20;42.20
22145;DHT22;11238;48.730;11.566;2022-07-05T15:18:17;30.30;42.70
22145;DHT22;11238;48.730;11.566;2022-07-05T15:20:43;30.40;42.60
22145;DHT22;11238;48.730;11.566;2022-07-05T15:23:09;30.50;42.60
22145;DHT22;11238;48.730;11.566;2022-07-05T15:25:35;30.50;41.20
22145;DHT22;11238;48.730;11.566;2022-07-05T15:28:02;30.50;40.80
22145;DHT22;11238;48.730;11.566;2022-07-05T15:30:31;30.40;41.10
22145;DHT22;11238;48.730;11.566;2022-07-05T15:32:57;30.40;39.90
22145;DHT22;11238;48.730;11.566;2022-07-05T15:35:23;30.40;41.50
22145;DHT22;11238;48.730;11.566;2022-07-05T15:37:48;30.30;39.20
22145;DHT22;11238;48.730;11.566;2022-07-05T15:40:14;30.30;41.10
22145;DHT22;11238;48.730;11.566;2022-07-05T15:42:40;30.20;39.50
22145;DHT22;11238;48.730;11.566;2022-07-05T15:45:24;30.30;42.40
22145;DHT22;11238;48.730;11.566;2022-07-05T15:47:50;30.10;40.10
22145;DHT22;11238;48.730;11.566;2022-07-05T15:50:16;30.00;40.80
22145;DHT22;11238;48.730;11.566;2022-07-05T15:52:42;29.90;40.40